createdAt,value
2023-02-28T00:01:34.179Z,58.70
2023-02-28T00:04:01.868Z,58.70
2023-02-28T00:06:29.076Z,58.70
2023-02-28T00:08:56.634Z,58.90
2023-02-28T00:11:23.843Z,59.00
2023-02-28T00:13:51.066Z,59.10
2023-02-28T00:16:23.185Z,59.10
2023-02-28T00:18:51.071Z,59.20
2023-02-28T00:21:19.514Z,59.20
2023-02-28T00:23:46.922Z,59.20
2023-02-28T00:26:14.166Z,59.30
2023-02-28T00:28:45.163Z,59.40
2023-02-28T00:31:12.330Z,59.40
2023-02-28T00:33:39.294Z,59.40
2023-02-28T00:36:10.625Z,59.30
2023-02-28T00:38:39.579Z,59.40
2023-02-28T00:41:07.354Z,59.40
2023-02-28T00:43:39.762Z,59.50
2023-02-28T00:46:08.059Z,59.60
2023-02-28T00:48:35.268Z,59.50
2023-02-28T00:51:02.883Z,59.50
2023-02-28T00:53:30.557Z,59.50
2023-02-28T00:55:59.383Z,59.60
2023-02-28T00:58:27.588Z,59.60
2023-02-28T01:00:55.002Z,59.70
2023-02-28T01:03:23.504Z,59.70
2023-02-28T01:05:51.274Z,59.80
2023-02-28T01:08:18.341Z,59.80
2023-02-28T01:10:45.710Z,59.90
2023-02-28T01:13:13.544Z,59.90
2023-02-28T01:15:45.399Z,59.90
2023-02-28T01:18:12.862Z,59.90
2023-02-28T01:20:40.114Z,59.80
2023-02-28T01:23:07.179Z,59.80
2023-02-28T01:25:38.694Z,59.80
2023-02-28T01:28:06.864Z,59.80
2023-02-28T01:30:35.087Z,59.70
2023-02-28T01:33:02.228Z,59.70
2023-02-28T01:35:29.148Z,59.80
2023-02-28T01:37:58.439Z,59.80
2023-02-28T01:40:28.324Z,59.90
2023-02-28T01:42:56.211Z,60.00
2023-02-28T01:45:35.311Z,60.10
2023-02-28T01:48:08.963Z,60.40
2023-02-28T01:50:40.977Z,60.50
2023-02-28T01:53:15.574Z,60.60
2023-02-28T01:55:46.463Z,60.90
2023-02-28T01:58:14.000Z,61.00
2023-02-28T02:00:43.912Z,61.30
2023-02-28T02:03:17.198Z,61.60
2023-02-28T02:05:48.671Z,62.00
2023-02-28T02:08:26.773Z,62.20
2023-02-28T02:10:58.660Z,62.80
2023-02-28T02:13:37.366Z,62.90
2023-02-28T02:16:53.211Z,63.20
2023-02-28T02:20:03.985Z,63.50
2023-02-28T02:23:02.841Z,63.60
2023-02-28T02:26:39.947Z,63.90
2023-02-28T02:29:30.045Z,64.20
2023-02-28T02:32:24.844Z,63.90
2023-02-28T02:35:18.710Z,64.40
2023-02-28T02:38:06.792Z,64.40
2023-02-28T02:40:44.616Z,64.60
2023-02-28T02:43:30.455Z,64.70
2023-02-28T02:46:06.471Z,65.10
2023-02-28T02:48:37.482Z,65.30
2023-02-28T02:51:15.566Z,65.20
2023-02-28T02:53:54.275Z,65.60
2023-02-28T02:56:27.056Z,65.90
2023-02-28T02:59:01.349Z,66.10
2023-02-28T03:01:32.483Z,66.30
2023-02-28T03:04:05.008Z,66.50
2023-02-28T03:06:32.226Z,66.70
2023-02-28T03:09:01.019Z,66.90
2023-02-28T03:11:28.832Z,67.00
2023-02-28T03:14:12.009Z,67.10
2023-02-28T03:17:29.593Z,67.30
2023-02-28T03:20:18.335Z,67.40
2023-02-28T03:23:15.874Z,67.20
2023-02-28T03:26:03.811Z,67.50
2023-02-28T03:28:59.969Z,67.60
2023-02-28T03:31:41.373Z,67.70
2023-02-28T03:34:22.764Z,67.70
2023-02-28T03:36:55.258Z,67.70
2023-02-28T03:39:35.527Z,67.90
2023-02-28T03:42:11.288Z,68.00
2023-02-28T03:44:42.282Z,68.20
2023-02-28T03:47:18.884Z,68.30
2023-02-28T03:49:59.168Z,68.60
2023-02-28T03:52:34.783Z,68.70
2023-02-28T03:55:08.120Z,68.90
2023-02-28T03:57:57.740Z,69.00
2023-02-28T04:00:38.003Z,69.20
2023-02-28T04:03:05.789Z,69.40
2023-02-28T04:05:33.205Z,69.40
2023-02-28T04:08:09.040Z,69.50
2023-02-28T04:10:35.978Z,69.80
2023-02-28T04:13:03.183Z,69.70
2023-02-28T04:15:30.216Z,70.60
2023-02-28T04:17:57.244Z,70.10
2023-02-28T04:20:24.295Z,70.20
2023-02-28T04:22:51.322Z,70.30
2023-02-28T04:25:18.427Z,70.50
2023-02-28T04:27:45.508Z,70.60
2023-02-28T04:30:13.475Z,70.60
2023-02-28T04:32:40.489Z,70.70
2023-02-28T04:35:08.769Z,70.90
2023-02-28T04:37:37.769Z,70.90
2023-02-28T04:40:05.440Z,71.00
2023-02-28T04:42:36.412Z,71.10
2023-02-28T04:45:04.491Z,71.20
2023-02-28T04:47:31.959Z,71.30
2023-02-28T04:49:59.503Z,71.40
2023-02-28T04:52:29.065Z,71.40
2023-02-28T04:54:56.074Z,71.60
2023-02-28T04:57:23.094Z,71.70
2023-02-28T04:59:50.153Z,71.90
2023-02-28T05:02:17.256Z,71.90
2023-02-28T05:04:44.340Z,72.10
2023-02-28T05:07:11.240Z,72.20
2023-02-28T05:09:38.130Z,72.30
2023-02-28T05:12:05.299Z,72.50
2023-02-28T05:14:32.191Z,72.50
2023-02-28T05:16:59.157Z,72.60
2023-02-28T05:19:26.108Z,72.70
2023-02-28T05:21:55.658Z,72.70
2023-02-28T05:24:26.133Z,72.80
2023-02-28T05:26:55.040Z,72.80
2023-02-28T05:29:22.733Z,72.90
2023-02-28T05:31:49.871Z,73.00
2023-02-28T05:34:17.071Z,72.90
2023-02-28T05:36:44.520Z,73.10
2023-02-28T05:39:13.699Z,73.20
2023-02-28T05:41:43.296Z,73.30
2023-02-28T05:44:11.003Z,73.30
2023-02-28T05:46:38.143Z,73.30
2023-02-28T05:49:05.516Z,73.30
2023-02-28T05:51:32.814Z,73.40
2023-02-28T05:54:02.192Z,73.50
2023-02-28T05:56:30.253Z,73.70
2023-02-28T05:58:57.525Z,73.80
2023-02-28T06:01:46.060Z,73.90
2023-02-28T06:04:30.364Z,74.20
2023-02-28T06:06:58.621Z,74.10
2023-02-28T06:09:25.940Z,74.20
2023-02-28T06:11:53.356Z,74.30
2023-02-28T06:14:21.304Z,74.40
2023-02-28T06:16:48.802Z,74.50
2023-02-28T06:19:16.602Z,74.60
2023-02-28T06:21:44.328Z,74.80
2023-02-28T06:24:11.847Z,74.90
2023-02-28T06:26:39.137Z,75.00
2023-02-28T06:29:06.129Z,75.20
2023-02-28T06:31:33.644Z,75.30
2023-02-28T06:34:00.821Z,75.50
2023-02-28T06:36:27.893Z,75.60
2023-02-28T06:38:56.986Z,75.70
2023-02-28T06:41:27.029Z,75.80
2023-02-28T06:43:54.611Z,76.10
2023-02-28T06:46:21.956Z,76.20
2023-02-28T06:48:49.086Z,76.30
2023-02-28T06:51:25.466Z,76.70
2023-02-28T06:53:52.816Z,77.20
2023-02-28T06:56:21.649Z,78.30
2023-02-28T06:58:51.517Z,79.60
2023-02-28T07:01:20.053Z,80.50
2023-02-28T07:03:48.085Z,81.20
2023-02-28T07:06:15.189Z,81.30
2023-02-28T07:08:42.224Z,81.20
2023-02-28T07:11:09.342Z,81.00
2023-02-28T07:13:37.060Z,80.80
2023-02-28T07:16:08.686Z,80.50
2023-02-28T07:18:37.170Z,80.00
2023-02-28T07:21:09.707Z,79.60
2023-02-28T07:23:41.069Z,79.00
2023-02-28T07:26:15.783Z,78.10
2023-02-28T07:28:43.788Z,77.30
2023-02-28T07:31:11.708Z,76.50
2023-02-28T07:33:39.468Z,75.30
2023-02-28T07:36:19.908Z,74.30
2023-02-28T07:38:50.675Z,73.20
2023-02-28T07:41:22.570Z,72.10
2023-02-28T07:43:50.056Z,71.10
2023-02-28T07:46:17.816Z,70.10
2023-02-28T07:48:45.835Z,68.60
2023-02-28T07:51:13.117Z,67.40
2023-02-28T07:53:40.640Z,66.10
2023-02-28T07:56:08.205Z,64.70
2023-02-28T07:58:35.653Z,63.10
2023-02-28T08:01:10.777Z,61.70
2023-02-28T08:03:39.336Z,59.60
2023-02-28T08:06:09.107Z,58.80
2023-02-28T08:08:36.197Z,57.60
2023-02-28T08:11:04.427Z,56.60
2023-02-28T08:13:31.873Z,55.20
2023-02-28T08:15:59.011Z,54.60
2023-02-28T08:18:25.936Z,53.60
2023-02-28T08:20:52.953Z,52.50
2023-02-28T08:23:19.760Z,51.40
2023-02-28T08:25:55.034Z,50.30
2023-02-28T08:28:23.559Z,48.50
2023-02-28T08:30:51.503Z,47.80
2023-02-28T08:33:18.525Z,47.10
2023-02-28T08:35:45.519Z,46.00
2023-02-28T08:38:12.545Z,44.00
2023-02-28T08:40:39.579Z,43.40
2023-02-28T08:43:06.752Z,40.30
2023-02-28T08:45:33.952Z,38.40
2023-02-28T08:48:00.992Z,38.80
2023-02-28T08:50:28.030Z,36.10
2023-02-28T08:52:54.938Z,36.00
2023-02-28T08:55:21.794Z,36.10
2023-02-28T08:57:48.809Z,36.40
2023-02-28T09:00:15.977Z,35.90
2023-02-28T09:02:44.659Z,33.30
2023-02-28T09:05:11.616Z,32.30
2023-02-28T09:07:38.546Z,33.20
2023-02-28T09:10:05.834Z,33.10
2023-02-28T09:12:36.646Z,32.50
2023-02-28T09:15:04.737Z,31.60
2023-02-28T09:17:32.173Z,30.40
2023-02-28T09:19:59.424Z,30.40
2023-02-28T09:22:26.934Z,27.40
2023-02-28T09:24:54.103Z,26.30
2023-02-28T09:27:21.083Z,27.60
2023-02-28T09:29:48.220Z,27.30
2023-02-28T09:32:15.217Z,24.90
2023-02-28T09:34:42.319Z,25.00
2023-02-28T09:37:09.454Z,24.50
2023-02-28T09:39:36.397Z,23.50
2023-02-28T09:42:04.984Z,24.20
2023-02-28T09:44:44.868Z,24.60
2023-02-28T09:47:31.703Z,23.80
2023-02-28T09:50:06.273Z,23.90
2023-02-28T09:52:33.639Z,24.00
2023-02-28T09:55:41.544Z,24.60
2023-02-28T09:58:45.629Z,24.40
2023-02-28T10:01:40.638Z,23.60
2023-02-28T10:04:56.246Z,23.00
2023-02-28T10:07:51.108Z,21.90
2023-02-28T10:10:27.895Z,21.70
2023-02-28T10:12:57.376Z,22.20
2023-02-28T10:15:28.695Z,22.70
2023-02-28T10:18:08.899Z,21.90
2023-02-28T10:20:40.989Z,21.60
2023-02-28T10:23:29.372Z,21.90
2023-02-28T10:26:24.838Z,21.70
2023-02-28T10:28:53.846Z,21.90
2023-02-28T10:31:21.514Z,22.40
2023-02-28T10:33:49.349Z,21.70
2023-02-28T10:36:20.828Z,21.10
2023-02-28T10:38:49.251Z,21.30
2023-02-28T10:41:35.576Z,20.70
2023-02-28T10:44:22.558Z,20.80
2023-02-28T10:46:51.713Z,19.40
2023-02-28T10:49:24.054Z,20.20
2023-02-28T10:52:00.540Z,19.40
2023-02-28T10:54:36.214Z,19.50
2023-02-28T10:57:23.019Z,19.70
2023-02-28T10:59:55.940Z,19.00
2023-02-28T11:02:44.004Z,18.40
2023-02-28T11:05:29.929Z,19.20
2023-02-28T11:08:12.484Z,19.00
2023-02-28T11:10:39.836Z,18.70
2023-02-28T11:13:06.921Z,18.70
2023-02-28T11:15:35.649Z,18.60
2023-02-28T11:18:23.679Z,19.00
2023-02-28T11:20:54.379Z,19.50
2023-02-28T11:23:22.297Z,19.60
2023-02-28T11:25:54.536Z,19.60
2023-02-28T11:28:38.269Z,19.10
2023-02-28T11:31:14.847Z,18.10
2023-02-28T11:33:55.311Z,18.80
2023-02-28T11:36:29.442Z,18.70
2023-02-28T11:39:11.353Z,18.70
2023-02-28T11:42:12.959Z,18.30
2023-02-28T11:45:03.868Z,18.50
2023-02-28T11:47:49.188Z,17.10
2023-02-28T11:50:37.175Z,17.90
2023-02-28T11:53:30.660Z,17.90
2023-02-28T11:56:38.145Z,17.00
2023-02-28T11:59:32.393Z,16.80
2023-02-28T12:02:50.888Z,18.20
2023-02-28T12:05:37.825Z,17.60
2023-02-28T12:08:32.940Z,17.40
2023-02-28T12:11:25.935Z,17.60
2023-02-28T12:14:20.198Z,17.20
2023-02-28T12:17:03.039Z,17.20
2023-02-28T12:20:22.522Z,17.40
2023-02-28T12:23:17.031Z,17.10
2023-02-28T12:26:07.263Z,17.10
2023-02-28T12:29:10.539Z,16.90
2023-02-28T12:31:45.821Z,16.80
2023-02-28T12:34:23.068Z,16.80
2023-02-28T12:36:53.340Z,16.50
2023-02-28T12:39:48.292Z,17.10
2023-02-28T12:42:25.840Z,16.00
2023-02-28T12:45:20.252Z,16.10
2023-02-28T12:47:54.018Z,15.80
2023-02-28T12:50:22.084Z,16.20
2023-02-28T12:53:19.647Z,15.50
2023-02-28T12:56:16.438Z,15.10
2023-02-28T12:58:58.776Z,14.90
2023-02-28T13:01:40.539Z,15.30
2023-02-28T13:04:48.606Z,15.30
2023-02-28T13:07:30.495Z,14.80
2023-02-28T13:10:01.096Z,15.30
2023-02-28T13:12:28.499Z,15.20
2023-02-28T13:15:29.510Z,15.10
2023-02-28T13:18:00.246Z,14.30
2023-02-28T13:20:38.595Z,15.00
2023-02-28T13:23:57.875Z,14.50
2023-02-28T13:26:36.839Z,14.30
2023-02-28T13:29:18.773Z,14.40
2023-02-28T13:32:07.051Z,14.70
2023-02-28T13:34:41.460Z,14.50
2023-02-28T13:37:26.676Z,15.00
2023-02-28T13:39:57.391Z,14.70
2023-02-28T13:42:51.461Z,15.50
2023-02-28T13:45:22.382Z,15.70
2023-02-28T13:48:04.268Z,15.60
2023-02-28T13:50:35.862Z,15.10
2023-02-28T13:53:15.007Z,15.40
2023-02-28T13:56:03.297Z,15.30
2023-02-28T13:58:56.384Z,15.60
2023-02-28T14:02:01.972Z,15.60
2023-02-28T14:04:56.634Z,15.20
2023-02-28T14:07:39.892Z,15.00
2023-02-28T14:10:09.657Z,15.20
2023-02-28T14:13:01.721Z,15.30
2023-02-28T14:16:00.010Z,14.50
2023-02-28T14:18:36.813Z,15.20
2023-02-28T14:21:30.313Z,15.30
2023-02-28T14:24:53.892Z,14.70
2023-02-28T14:27:52.729Z,15.10
2023-02-28T14:30:53.915Z,15.30
2023-02-28T14:33:47.667Z,15.30
2023-02-28T14:36:22.770Z,15.50
2023-02-28T14:38:57.174Z,15.60
2023-02-28T14:41:38.264Z,15.90
2023-02-28T14:44:26.691Z,16.10
2023-02-28T14:47:02.701Z,16.30
2023-02-28T14:49:33.637Z,16.40
2023-02-28T14:52:12.780Z,16.60
2023-02-28T14:54:40.404Z,16.90
2023-02-28T14:57:07.768Z,17.20
2023-02-28T14:59:36.798Z,17.50
2023-02-28T15:02:25.885Z,17.70
2023-02-28T15:05:11.070Z,18.30
2023-02-28T15:07:38.327Z,18.70
2023-02-28T15:10:21.128Z,18.80
2023-02-28T15:12:59.094Z,19.30
2023-02-28T15:16:01.072Z,19.50
2023-02-28T15:18:52.451Z,19.90
2023-02-28T15:22:05.251Z,20.10
2023-02-28T15:24:40.160Z,20.40
2023-02-28T15:27:29.501Z,20.70
2023-02-28T15:30:00.484Z,20.70
2023-02-28T15:32:46.506Z,20.60
2023-02-28T15:35:42.973Z,20.80
2023-02-28T15:38:27.991Z,20.90
2023-02-28T15:40:58.321Z,20.80
2023-02-28T15:43:33.133Z,20.90
2023-02-28T15:46:10.789Z,21.20
2023-02-28T15:49:18.621Z,21.30
2023-02-28T15:51:45.690Z,21.60
2023-02-28T15:54:25.460Z,21.50
2023-02-28T15:56:55.382Z,21.70
2023-02-28T15:59:30.908Z,21.80
2023-02-28T16:02:22.475Z,22.00
2023-02-28T16:05:15.742Z,22.60
2023-02-28T16:07:44.467Z,22.20
2023-02-28T16:10:16.972Z,22.10
2023-02-28T16:12:44.840Z,22.20
2023-02-28T16:15:27.160Z,22.40
2023-02-28T16:17:55.021Z,22.80
2023-02-28T16:20:27.435Z,22.80
2023-02-28T16:22:55.314Z,23.20
2023-02-28T16:25:30.262Z,23.50
2023-02-28T16:28:01.208Z,23.80
2023-02-28T16:30:32.861Z,24.20
2023-02-28T16:33:00.879Z,24.50
2023-02-28T16:35:27.893Z,24.90
2023-02-28T16:37:55.467Z,25.30
2023-02-28T16:40:29.438Z,25.60
2023-02-28T16:43:00.769Z,26.10
2023-02-28T16:45:29.714Z,26.40
2023-02-28T16:47:57.446Z,26.60
2023-02-28T16:50:28.576Z,26.90
2023-02-28T16:52:56.644Z,27.30
2023-02-28T16:55:25.189Z,27.50
2023-02-28T16:57:55.785Z,27.90
2023-02-28T17:00:24.389Z,28.20
2023-02-28T17:02:51.953Z,28.50
2023-02-28T17:05:19.726Z,28.80
2023-02-28T17:07:47.682Z,29.20
2023-02-28T17:10:27.380Z,29.50
2023-02-28T17:12:58.332Z,30.10
2023-02-28T17:15:32.121Z,30.00
2023-02-28T17:17:59.188Z,30.60
2023-02-28T17:20:27.454Z,30.90
2023-02-28T17:22:55.679Z,31.40
2023-02-28T17:25:24.198Z,31.80
2023-02-28T17:27:54.220Z,32.20
2023-02-28T17:30:28.199Z,32.50
2023-02-28T17:32:57.010Z,33.10
2023-02-28T17:35:25.018Z,33.20
2023-02-28T17:37:52.216Z,33.70
2023-02-28T17:40:23.483Z,34.00
2023-02-28T17:42:52.972Z,34.50
2023-02-28T17:45:20.720Z,34.70
2023-02-28T17:47:53.345Z,35.20
2023-02-28T17:50:22.785Z,35.60
2023-02-28T17:52:51.386Z,36.00
2023-02-28T17:55:20.011Z,36.30
2023-02-28T17:57:47.499Z,36.60
2023-02-28T18:00:18.293Z,36.90
2023-02-28T18:02:45.427Z,37.20
2023-02-28T18:05:12.856Z,37.60
2023-02-28T18:07:40.182Z,37.90
2023-02-28T18:10:15.989Z,38.40
2023-02-28T18:12:42.895Z,38.70
2023-02-28T18:15:10.487Z,39.00
2023-02-28T18:17:37.435Z,39.20
2023-02-28T18:20:05.896Z,39.50
2023-02-28T18:22:33.023Z,39.80
2023-02-28T18:25:00.020Z,40.00
2023-02-28T18:27:27.038Z,40.30
2023-02-28T18:29:54.135Z,40.70
2023-02-28T18:32:21.171Z,41.00
2023-02-28T18:34:48.252Z,41.30
2023-02-28T18:37:16.170Z,41.70
2023-02-28T18:39:43.163Z,42.10
2023-02-28T18:42:10.243Z,42.30
2023-02-28T18:44:38.193Z,42.60
2023-02-28T18:47:05.402Z,42.80
2023-02-28T18:49:35.488Z,43.10
2023-02-28T18:52:02.951Z,43.30
2023-02-28T18:54:30.291Z,43.50
2023-02-28T18:56:57.361Z,43.70
2023-02-28T18:59:24.933Z,44.00
2023-02-28T19:01:51.910Z,44.10
2023-02-28T19:04:20.270Z,44.30
2023-02-28T19:06:47.418Z,44.40
2023-02-28T19:09:19.616Z,44.60
2023-02-28T19:11:47.379Z,44.80
2023-02-28T19:14:16.324Z,45.00
2023-02-28T19:16:45.102Z,45.20
2023-02-28T19:19:12.237Z,45.30
2023-02-28T19:21:39.215Z,45.60
2023-02-28T19:24:06.625Z,45.80
2023-02-28T19:26:33.861Z,46.10
2023-02-28T19:29:04.374Z,46.30
2023-02-28T19:31:31.812Z,46.50
2023-02-28T19:33:59.176Z,46.60
2023-02-28T19:36:26.846Z,46.80
2023-02-28T19:38:54.396Z,46.90
2023-02-28T19:41:21.511Z,47.10
2023-02-28T19:43:48.705Z,47.20
2023-02-28T19:46:16.183Z,47.30
2023-02-28T19:48:44.811Z,47.50
2023-02-28T19:51:14.209Z,47.60
2023-02-28T19:53:42.888Z,48.00
2023-02-28T19:56:10.903Z,48.00
2023-02-28T19:58:39.265Z,48.10
2023-02-28T20:01:12.795Z,48.20
2023-02-28T20:03:40.593Z,48.30
2023-02-28T20:06:13.646Z,48.40
2023-02-28T20:08:40.846Z,48.70
2023-02-28T20:11:14.454Z,48.70
2023-02-28T20:13:41.447Z,49.00
2023-02-28T20:16:11.772Z,49.10
2023-02-28T20:18:39.720Z,49.30
2023-02-28T20:21:11.406Z,49.40
2023-02-28T20:23:43.343Z,49.60
2023-02-28T20:26:11.493Z,49.60
2023-02-28T20:28:39.697Z,49.80
2023-02-28T20:31:16.035Z,49.80
2023-02-28T20:33:46.582Z,50.10
2023-02-28T20:36:15.542Z,50.10
2023-02-28T20:38:43.403Z,49.50
2023-02-28T20:41:10.469Z,49.80
2023-02-28T20:43:37.357Z,50.20
2023-02-28T20:46:04.756Z,50.40
2023-02-28T20:48:33.310Z,50.50
2023-02-28T20:51:00.535Z,50.70
2023-02-28T20:53:29.806Z,50.90
2023-02-28T20:56:12.553Z,51.00
2023-02-28T20:58:40.351Z,51.10
2023-02-28T21:01:15.837Z,51.10
2023-02-28T21:03:47.807Z,51.20
2023-02-28T21:06:17.559Z,51.30
2023-02-28T21:08:45.092Z,51.60
2023-02-28T21:11:20.062Z,51.70
2023-02-28T21:13:47.958Z,51.80
2023-02-28T21:16:17.679Z,51.90
2023-02-28T21:18:44.826Z,52.10
2023-02-28T21:21:18.397Z,52.30
2023-02-28T21:23:46.664Z,52.50
2023-02-28T21:26:18.548Z,52.60
2023-02-28T21:29:00.642Z,52.70
2023-02-28T21:31:31.238Z,53.00
2023-02-28T21:34:01.032Z,52.90
2023-02-28T21:36:34.911Z,53.00
2023-02-28T21:39:12.292Z,53.10
2023-02-28T21:41:39.238Z,53.20
2023-02-28T21:44:06.161Z,53.30
2023-02-28T21:46:33.993Z,53.40
2023-02-28T21:49:01.353Z,53.50
2023-02-28T21:51:33.883Z,53.50
2023-02-28T21:54:01.532Z,53.60
2023-02-28T21:56:34.637Z,53.70
2023-02-28T21:59:02.593Z,53.80
2023-02-28T22:01:40.298Z,53.90
2023-02-28T22:04:10.406Z,54.10
2023-02-28T22:06:41.533Z,54.00
2023-02-28T22:09:10.384Z,54.20
2023-02-28T22:11:38.874Z,54.30
2023-02-28T22:14:08.324Z,54.30
2023-02-28T22:16:50.314Z,54.40
2023-02-28T22:19:19.165Z,54.50
2023-02-28T22:21:47.335Z,54.60
2023-02-28T22:24:14.783Z,54.70
2023-02-28T22:26:41.917Z,54.90
2023-02-28T22:29:10.489Z,55.10
2023-02-28T22:31:37.560Z,55.20
2023-02-28T22:34:08.722Z,55.30
2023-02-28T22:36:36.130Z,55.40
2023-02-28T22:39:04.322Z,55.50
2023-02-28T22:41:31.742Z,55.70
2023-02-28T22:44:02.550Z,55.70
2023-02-28T22:46:32.631Z,55.80
2023-02-28T22:49:01.987Z,55.90
2023-02-28T22:51:29.245Z,55.90
2023-02-28T22:53:58.182Z,56.00
2023-02-28T22:56:28.326Z,56.20
2023-02-28T22:58:59.131Z,56.40
2023-02-28T23:01:28.952Z,56.40
2023-02-28T23:03:56.419Z,56.50
2023-02-28T23:06:31.923Z,57.20
2023-02-28T23:09:05.715Z,56.80
2023-02-28T23:11:41.197Z,56.90
2023-02-28T23:14:12.519Z,57.10
2023-02-28T23:16:53.803Z,57.20
2023-02-28T23:19:30.864Z,57.30
2023-02-28T23:22:00.331Z,57.40
2023-02-28T23:24:31.700Z,57.40
2023-02-28T23:27:02.013Z,57.50
2023-02-28T23:29:29.656Z,57.70
2023-02-28T23:31:57.511Z,57.80
2023-02-28T23:34:31.992Z,57.90
2023-02-28T23:37:01.764Z,58.10
2023-02-28T23:39:31.090Z,58.30
2023-02-28T23:41:58.353Z,58.30
2023-02-28T23:44:25.771Z,58.40
2023-02-28T23:46:53.623Z,58.50
2023-02-28T23:49:21.755Z,58.60
2023-02-28T23:51:51.756Z,58.70
2023-02-28T23:54:19.370Z,58.80
2023-02-28T23:56:46.896Z,58.90
2023-02-28T23:59:13.885Z,59.00
